Time;durP1;ratioP1;P1;durP2;ratioP2;P2;SDS_P1;SDS_P2;PMS_P1;PMS_P2;Temp;Humidity;BMP_temperature;BMP_pressure;BME280_temperature;BME280_humidity;BME280_pressure;Samples;Min_cycle;Max_cycle;Signal;HPM_P1;HPM_P2
2022/11/27 00:00:07;;;;;;;24.00;7.50;;;;;;;5.32;100.00;102345.69;5112845;28;20044;-74
2022/11/27 00:02:33;;;;;;;17.15;6.80;;;;;;;5.26;100.00;102338.31;5113492;28;21424;-75
2022/11/27 00:04:58;;;;;;;21.08;6.82;;;;;;;5.19;100.00;102330.06;5112788;28;20050;-74
2022/11/27 00:07:23;;;;;;;25.23;9.88;;;;;;;5.14;100.00;102342.91;5095417;28;20525;-74
2022/11/27 00:09:48;;;;;;;29.33;7.95;;;;;;;5.07;100.00;102331.19;5113641;28;20114;-73
2022/11/27 00:12:14;;;;;;;23.02;8.18;;;;;;;5.16;100.00;102342.75;5112813;28;20044;-74
2022/11/27 00:14:39;;;;;;;25.90;8.07;;;;;;;5.14;100.00;102340.25;5113532;28;20424;-74
2022/11/27 00:17:05;;;;;;;19.85;6.75;;;;;;;5.10;100.00;102336.22;5112776;28;20551;-74
2022/11/27 00:19:30;;;;;;;37.50;9.38;;;;;;;5.02;100.00;102329.94;5113624;28;20031;-74
2022/11/27 00:21:55;;;;;;;28.10;10.23;;;;;;;4.98;100.00;102334.69;5094754;28;20066;-75
2022/11/27 00:24:22;;;;;;;23.45;7.82;;;;;;;4.96;100.00;102324.25;5093627;28;20373;-74
2022/11/27 00:26:48;;;;;;;22.33;7.25;;;;;;;4.95;100.00;102311.97;5113102;28;20511;-74
2022/11/27 00:29:14;;;;;;;25.48;7.30;;;;;;;4.93;100.00;102315.75;5112422;28;20190;-74
2022/11/27 00:31:39;;;;;;;19.83;6.85;;;;;;;4.88;100.00;102304.69;5094866;28;20035;-75
2022/11/27 00:34:07;;;;;;;22.58;7.32;;;;;;;4.87;100.00;102305.69;5091941;28;20051;-73
2022/11/27 00:36:34;;;;;;;28.30;8.13;;;;;;;4.82;100.00;102305.28;5113199;28;20444;-74
2022/11/27 00:38:59;;;;;;;24.65;7.95;;;;;;;4.78;100.00;102299.41;5094857;28;20028;-74
2022/11/27 00:41:27;;;;;;;29.30;7.18;;;;;;;4.77;100.00;102300.38;5112234;28;20071;-74
2022/11/27 00:43:53;;;;;;;21.15;8.35;;;;;;;4.71;100.00;102293.00;5094708;28;20364;-74
2022/11/27 00:46:21;;;;;;;26.27;8.73;;;;;;;4.69;100.00;102294.97;5094037;28;20028;-74
2022/11/27 00:48:47;;;;;;;26.08;7.22;;;;;;;4.64;100.00;102300.69;5112460;28;20038;-74
2022/11/27 00:51:16;;;;;;;35.72;9.85;;;;;;;4.66;100.00;102296.09;5112285;28;20126;-73
2022/11/27 00:53:42;;;;;;;24.85;8.27;;;;;;;4.66;100.00;102297.91;5112811;28;20028;-73
2022/11/27 00:56:13;;;;;;;30.48;8.68;;;;;;;4.59;100.00;102279.03;5112821;28;20031;-73
2022/11/27 00:58:38;;;;;;;32.53;7.97;;;;;;;4.68;100.00;102289.81;5093988;28;20489;-73
2022/11/27 01:01:06;;;;;;;25.38;8.55;;;;;;;4.70;100.00;102285.19;5112608;28;20024;-74
2022/11/27 01:03:32;;;;;;;27.60;7.85;;;;;;;4.71;100.00;102284.22;5111923;28;20425;-73
2022/11/27 01:09:19;;;;;;;28.73;7.28;;;;;;;4.59;100.00;102271.09;5112447;28;20089;-74
2022/11/27 01:11:44;;;;;;;30.58;7.82;;;;;;;4.52;100.00;102269.16;5112622;28;20040;-74
2022/11/27 01:14:13;;;;;;;25.95;7.88;;;;;;;4.52;100.00;102266.50;5111981;28;20379;-74
2022/11/27 01:16:39;;;;;;;35.60;7.20;;;;;;;4.51;100.00;102259.53;5093940;28;20047;-74
2022/11/27 01:19:04;;;;;;;26.35;8.52;;;;;;;4.51;100.00;102257.72;5094096;28;20093;-73
2022/11/27 01:21:31;;;;;;;25.40;8.13;;;;;;;4.42;100.00;102245.34;5111558;28;20531;-74
2022/11/27 01:23:57;;;;;;;24.35;7.78;;;;;;;4.45;100.00;102265.41;5112285;28;20035;-74
2022/11/27 01:26:23;;;;;;;31.50;10.30;;;;;;;4.44;100.00;102258.44;5111480;28;20043;-75
2022/11/27 01:28:53;;;;;;;30.00;8.93;;;;;;;4.42;100.00;102265.69;5112156;28;20547;-74
2022/11/27 01:31:22;;;;;;;29.08;11.20;;;;;;;4.39;100.00;102264.16;5112321;28;20507;-75
2022/11/27 01:33:52;;;;;;;21.60;8.52;;;;;;;4.32;100.00;102265.66;5111396;28;20040;-75
2022/11/27 01:36:17;;;;;;;35.03;11.05;;;;;;;4.30;100.00;102257.00;5095120;28;20036;-75
2022/11/27 01:38:42;;;;;;;25.75;10.00;;;;;;;4.30;100.00;102247.25;5097069;28;20040;-73
2022/11/27 01:44:29;;;;;;;33.08;11.88;;;;;;;4.32;100.00;102234.72;5116208;28;20111;-73
2022/11/27 01:47:10;;;;;;;24.63;9.10;;;;;;;4.29;100.00;102229.69;5097363;28;20028;-74
2022/11/27 01:49:40;;;;;;;27.02;11.15;;;;;;;4.29;100.00;102221.75;5096225;28;20297;-74
2022/11/27 01:52:10;;;;;;;29.08;11.65;;;;;;;4.32;100.00;102228.59;5097260;28;20035;-73
2022/11/27 01:54:46;;;;;;;31.85;9.73;;;;;;;4.38;100.00;102225.41;5097370;28;20369;-74
2022/11/27 01:57:19;;;;;;;30.90;10.77;;;;;;;4.38;100.00;102204.22;5094673;28;20038;-74
2022/11/27 01:59:45;;;;;;;;;;;;;;;4.53;100.00;102201.97;5097667;28;20027;-74
2022/11/27 02:02:11;;;;;;;28.52;10.27;;;;;;;4.36;100.00;102198.22;5096572;28;19920;-73
2022/11/27 02:04:36;;;;;;;28.05;9.63;;;;;;;4.31;100.00;102190.69;5115406;28;20084;-74
2022/11/27 02:07:01;;;;;;;32.63;9.93;;;;;;;4.24;100.00;102196.69;5095841;28;20044;-74
2022/11/27 02:09:28;;;;;;;25.10;10.48;;;;;;;4.21;100.00;102183.72;5115336;28;20096;-74
2022/11/27 02:12:03;;;;;;;34.58;10.15;;;;;;;4.23;100.00;102184.41;5096881;28;20034;-74
2022/11/27 02:14:37;;;;;;;37.45;11.43;;;;;;;4.15;100.00;102179.00;5114487;28;20039;-74
2022/11/27 02:17:20;;;;;;;37.72;13.73;;;;;;;4.07;100.00;102171.75;5115259;28;20110;-74
2022/11/27 02:20:18;;;;;;;;;;;;;;;4.10;100.00;102160.88;5096837;28;20126;-74
2022/11/27 02:26:25;;;;;;;33.38;10.77;;;;;;;4.04;100.00;102161.41;5074196;28;20045;-74
2022/11/27 02:29:06;;;;;;;28.35;10.88;;;;;;;3.99;100.00;102151.25;5096720;28;20063;-76
2022/11/27 02:31:41;;;;;;;38.08;13.25;;;;;;;3.98;100.00;102154.88;5114319;28;20039;-74
2022/11/27 02:34:15;;;;;;;34.10;12.38;;;;;;;3.99;100.00;102145.97;5097066;28;20110;-74
2022/11/27 02:36:48;;;;;;;31.33;11.90;;;;;;;3.99;100.00;102150.41;5096012;28;20044;-73
2022/11/27 02:39:20;;;;;;;23.70;8.82;;;;;;;4.06;100.00;102148.06;5096724;28;20040;-75
2022/11/27 02:41:56;;;;;;;33.72;11.23;;;;;;;4.02;100.00;102145.69;5096144;28;20019;-73
2022/11/27 02:47:47;;;;;;;42.42;11.68;;;;;;;4.00;100.00;102141.50;5113322;28;20109;-73
2022/11/27 02:53:40;;;;;;;26.05;8.82;;;;;;;3.92;100.00;102136.06;5115035;28;20096;-73
2022/11/27 02:59:30;;;;;;;30.52;9.57;;;;;;;3.91;100.00;102147.63;5114962;28;20078;-74
2022/11/27 03:05:20;;;;;;;33.83;10.07;;;;;;;3.86;100.00;102152.50;5114227;28;20085;-73
2022/11/27 03:11:09;;;;;;;26.88;10.65;;;;;;;3.93;100.00;102148.34;5114740;28;20069;-74
2022/11/27 03:20:25;;;;;;;18.85;7.60;;;;;;;4.22;100.00;102132.44;5114500;28;20055;-74
2022/11/27 03:26:12;;;;;;;20.55;7.40;;;;;;;4.34;100.00;102126.06;5114432;28;20092;-73
2022/11/27 03:31:59;;;;;;;19.23;6.57;;;;;;;4.36;100.00;102124.09;5114509;28;20084;-73
2022/11/27 03:37:55;;;;;;;23.00;8.38;;;;;;;4.42;100.00;102128.81;5114345;28;20078;-75
2022/11/27 03:40:28;;;;;;;17.45;6.97;;;;;;;4.43;100.00;102113.75;5113964;28;20441;-74
2022/11/27 03:43:13;;;;;;;14.25;6.22;;;;;;;4.48;100.00;102125.59;5113053;28;20079;-73
2022/11/27 03:45:58;;;;;;;23.77;6.20;;;;;;;4.50;100.00;102112.22;5094931;28;20074;-73
2022/11/27 03:48:42;;;;;;;17.83;6.22;;;;;;;4.53;100.00;102103.97;5112977;28;20039;-74
2022/11/27 03:51:19;;;;;;;20.48;6.85;;;;;;;4.48;100.00;102095.63;5114142;28;20059;-73
2022/11/27 03:57:16;;;;;;;17.17;6.25;;;;;;;4.56;100.00;102114.28;5114248;28;20155;-74
2022/11/27 03:59:44;;;;;;;20.75;6.97;;;;;;;4.53;100.00;102107.47;5112745;28;20058;-73
2022/11/27 04:05:31;;;;;;;18.73;7.10;;;;;;;4.56;100.00;102104.50;5113852;28;20059;-73
2022/11/27 04:07:57;;;;;;;20.45;7.18;;;;;;;4.54;100.00;102103.00;5113486;28;20028;-72
2022/11/27 04:10:22;;;;;;;16.88;7.07;;;;;;;4.58;100.00;102114.97;5112835;28;20049;-74
2022/11/27 04:12:47;;;;;;;20.33;6.68;;;;;;;4.52;100.00;102112.91;5113252;28;20039;-73
2022/11/27 04:15:13;;;;;;;14.60;5.18;;;;;;;4.55;100.00;102118.75;5113379;28;20031;-73
2022/11/27 04:17:38;;;;;;;13.30;5.07;;;;;;;4.53;100.00;102112.75;5094671;28;20035;-73
2022/11/27 04:20:04;;;;;;;17.08;6.38;;;;;;;4.60;100.00;102124.44;5113286;28;20039;-73
2022/11/27 04:22:30;;;;;;;13.75;6.07;;;;;;;4.56;100.00;102123.06;5093945;28;20119;-73
2022/11/27 04:24:55;;;;;;;15.20;6.47;;;;;;;4.57;100.00;102132.66;5113069;28;20096;-75
2022/11/27 04:27:20;;;;;;;14.80;6.50;;;;;;;4.51;100.00;102106.75;5094758;28;20144;-73
2022/11/27 04:29:45;;;;;;;19.48;6.03;;;;;;;4.63;100.00;102118.03;5112370;28;20051;-73
2022/11/27 04:32:11;;;;;;;14.40;5.90;;;;;;;4.60;100.00;102099.75;5094852;28;20038;-73
2022/11/27 04:34:36;;;;;;;13.35;5.65;;;;;;;4.66;100.00;102109.81;5112271;28;20048;-73
2022/11/27 04:37:02;;;;;;;17.38;6.88;;;;;;;4.62;100.00;102109.22;5113155;28;20039;-73
2022/11/27 04:39:27;;;;;;;15.43;5.60;;;;;;;4.61;100.00;102109.38;5112904;28;20038;-73
2022/11/27 04:41:52;;;;;;;13.43;6.15;;;;;;;4.64;100.00;102123.19;5112275;28;20035;-74
2022/11/27 04:44:17;;;;;;;15.77;5.75;;;;;;;4.57;100.00;102100.88;5095006;28;20392;-73
2022/11/27 04:46:43;;;;;;;13.48;5.85;;;;;;;4.59;100.00;102111.34;5112435;28;20095;-72
2022/11/27 04:49:09;;;;;;;12.85;4.97;;;;;;;4.57;100.00;102114.13;5112940;28;20474;-73
2022/11/27 04:51:34;;;;;;;18.33;6.78;;;;;;;4.58;100.00;102099.06;5090095;28;20059;-72
2022/11/27 04:54:00;;;;;;;20.13;6.00;;;;;;;4.55;100.00;102092.25;5094576;28;20023;-73
2022/11/27 04:56:25;;;;;;;20.73;6.28;;;;;;;4.52;100.00;102089.91;5113001;28;20488;-74
2022/11/27 04:58:50;;;;;;;15.63;5.57;;;;;;;4.50;100.00;102078.59;5112339;28;20054;-72
2022/11/27 05:04:37;;;;;;;12.60;5.82;;;;;;;4.49;100.00;102084.06;5112684;28;20430;-73
2022/11/27 05:07:02;;;;;;;13.02;5.80;;;;;;;4.47;100.00;102076.25;5112765;28;20031;-73
2022/11/27 05:09:27;;;;;;;21.67;6.93;;;;;;;4.44;100.00;102068.59;5111905;28;20078;-72
2022/11/27 05:11:53;;;;;;;14.00;5.53;;;;;;;4.50;100.00;102073.31;5093711;28;20076;-72
2022/11/27 05:14:19;;;;;;;14.98;5.63;;;;;;;4.41;100.00;102060.13;5112509;28;20028;-72
2022/11/27 05:16:50;;;;;;;17.23;5.85;;;;;;;4.52;100.00;102062.56;5111870;28;20031;-73
2022/11/27 05:22:37;;;;;;;14.90;5.30;;;;;;;4.46;100.00;102050.75;5112299;28;20139;-73
2022/11/27 05:25:02;;;;;;;14.00;5.50;;;;;;;4.51;100.00;102052.97;5112597;28;20115;-73
2022/11/27 05:27:28;;;;;;;12.15;5.38;;;;;;;4.55;100.00;102060.47;5111625;28;20047;-74
2022/11/27 05:29:53;;;;;;;12.93;5.45;;;;;;;4.52;100.00;102050.16;5094013;28;20480;-72
2022/11/27 05:32:18;;;;;;;16.63;6.15;;;;;;;4.57;100.00;102047.91;5111634;28;20044;-73
2022/11/27 05:34:43;;;;;;;22.25;6.70;;;;;;;4.54;100.00;102036.78;5093891;28;20460;-73
2022/11/27 05:37:11;;;;;;;12.50;5.38;;;;;;;4.60;100.00;102044.13;5093992;28;20036;-73
2022/11/27 05:39:37;;;;;;;13.13;5.32;;;;;;;4.58;100.00;102044.28;5111446;28;20048;-73
2022/11/27 05:42:02;;;;;;;14.60;4.95;;;;;;;4.58;100.00;102039.00;5094038;28;20024;-73
2022/11/27 05:44:28;;;;;;;13.13;4.95;;;;;;;4.62;100.00;102040.38;5111117;28;20043;-72
2022/11/27 05:46:53;;;;;;;15.93;6.00;;;;;;;4.58;100.00;102028.41;5111962;28;20036;-73
2022/11/27 05:49:18;;;;;;;10.30;5.10;;;;;;;4.63;100.00;102028.81;5112016;28;20031;-73
2022/11/27 05:51:43;;;;;;;8.10;3.72;;;;;;;4.67;100.00;102026.72;5093141;28;20032;-73
2022/11/27 05:54:09;;;;;;;11.25;5.07;;;;;;;4.68;100.00;102030.19;5112172;28;20027;-73
2022/11/27 05:56:34;;;;;;;14.40;5.40;;;;;;;4.69;100.00;102021.25;5111249;28;20047;-74
2022/11/27 06:02:21;;;;;;;15.10;4.88;;;;;;;4.65;100.00;102007.47;5112167;28;20690;-74
2022/11/27 06:08:08;;;;;;;15.13;5.28;;;;;;;4.68;100.00;102006.34;5112082;28;20043;-74
2022/11/27 06:10:33;;;;;;;13.18;4.80;;;;;;;4.68;100.00;102001.06;5093476;28;20032;-73
2022/11/27 06:12:58;;;;;;;18.88;4.90;;;;;;;4.69;100.00;102008.00;5093507;28;20024;-73
2022/11/27 06:15:24;;;;;;;14.13;4.72;;;;;;;4.69;100.00;102014.16;5092968;28;20126;-73
2022/11/27 06:21:13;;;;;;;11.80;4.30;;;;;;;4.75;100.00;102004.78;5112272;28;20042;-73
2022/11/27 06:23:42;;;;;;;17.63;5.80;;;;;;;4.77;100.00;102005.47;5096623;28;20471;-73
2022/11/27 06:26:13;;;;;;;15.27;5.78;;;;;;;4.76;100.00;101998.50;5094873;28;20044;-73
2022/11/27 06:28:39;;;;;;;12.57;4.72;;;;;;;4.73;100.00;101999.63;5096613;28;20028;-73
2022/11/27 06:34:27;;;;;;;11.73;4.38;;;;;;;4.74;100.00;102000.47;5115157;28;20046;-73
2022/11/27 06:36:52;;;;;;;14.35;6.22;;;;;;;4.72;100.00;101991.81;5096632;28;20024;-74
2022/11/27 06:39:17;;;;;;;9.18;4.82;;;;;;;4.70;100.00;102007.03;5113986;28;20043;-74
2022/11/27 06:41:42;;;;;;;12.52;4.65;;;;;;;4.61;100.00;101984.88;5096656;28;20027;-73
2022/11/27 06:44:09;;;;;;;13.60;5.95;;;;;;;4.58;100.00;102006.38;5113859;28;20551;-73
2022/11/27 06:46:35;;;;;;;16.30;4.78;;;;;;;4.53;100.00;102006.81;5114864;28;20027;-74
2022/11/27 06:49:00;;;;;;;10.60;4.70;;;;;;;4.47;100.00;102004.75;5114657;28;20508;-73
2022/11/27 06:51:28;;;;;;;15.10;4.93;;;;;;;4.45;100.00;101996.13;5095754;28;20051;-75
2022/11/27 06:53:53;;;;;;;12.65;4.75;;;;;;;4.35;100.00;102001.47;5114676;28;20023;-74
2022/11/27 06:56:22;;;;;;;15.07;4.60;;;;;;;4.30;100.00;101989.63;5095805;28;20442;-73
2022/11/27 06:58:52;;;;;;;14.25;5.35;;;;;;;4.25;100.00;101981.28;5096269;28;20088;-75
2022/11/27 07:04:39;;;;;;;13.25;4.95;;;;;;;4.13;100.00;101971.84;5114583;28;20429;-74
2022/11/27 07:10:27;;;;;;;18.15;5.65;;;;;;;4.13;100.00;101977.97;5114635;28;20042;-74
2022/11/27 07:16:15;;;;;;;14.35;4.97;;;;;;;4.09;100.00;101951.94;5114714;28;20165;-74
2022/11/27 07:18:44;;;;;;;19.17;5.63;;;;;;;4.07;100.00;101943.31;5114333;28;20024;-73
2022/11/27 07:24:31;;;;;;;14.18;5.10;;;;;;;4.04;100.00;101928.53;5114830;28;20050;-74
2022/11/27 07:26:56;;;;;;;13.77;5.95;;;;;;;4.10;100.00;101937.75;5113345;28;20031;-75
2022/11/27 07:29:22;;;;;;;14.60;5.78;;;;;;;4.02;100.00;101935.78;5114243;28;20032;-74
2022/11/27 07:35:09;;;;;;;17.17;6.47;;;;;;;3.98;100.00;101926.47;5113776;28;20047;-74
2022/11/27 07:41:03;;;;;;;15.15;6.75;;;;;;;4.06;100.00;101936.38;5114141;28;20424;-75
2022/11/27 07:43:29;;;;;;;23.70;6.97;;;;;;;4.02;100.00;101933.97;5113869;28;20078;-74
2022/11/27 07:45:55;;;;;;;12.20;5.88;;;;;;;4.10;100.00;101930.63;5113165;28;20054;-74
2022/11/27 07:48:21;;;;;;;18.17;6.63;;;;;;;4.06;100.00;101926.63;5095279;28;20023;-74
2022/11/27 07:50:46;;;;;;;15.95;5.53;;;;;;;3.95;100.00;101914.38;5112986;28;20126;-75
2022/11/27 07:53:11;;;;;;;16.20;6.85;;;;;;;4.00;100.00;101912.13;5113778;28;20035;-74
2022/11/27 07:55:38;;;;;;;16.55;7.75;;;;;;;4.03;100.00;101906.53;5095664;28;20024;-73
2022/11/27 07:58:03;;;;;;;18.20;7.00;;;;;;;4.03;100.00;101890.66;5112775;28;20060;-74
2022/11/27 08:03:50;;;;;;;21.67;7.85;;;;;;;4.04;100.00;101892.31;5113667;28;20074;-74
2022/11/27 08:06:23;;;;;;;15.15;6.38;;;;;;;4.03;100.00;101888.00;5095098;28;20471;-74
2022/11/27 08:08:49;;;;;;;;;;;;;;;4.06;100.00;101886.91;5113089;28;20502;-74
2022/11/27 08:14:37;;;;;;;14.70;6.22;;;;;;;4.02;100.00;101880.22;5113544;28;20433;-74
2022/11/27 08:17:02;;;;;;;19.48;7.32;;;;;;;3.99;100.00;101884.00;5094457;28;20036;-76
2022/11/27 08:19:27;;;;;;;17.83;7.40;;;;;;;3.98;100.00;101877.03;5113335;28;20032;-74
2022/11/27 08:21:55;;;;;;;21.23;9.15;;;;;;;4.00;100.00;101879.53;5094279;28;20043;-74
2022/11/27 08:24:20;;;;;;;16.60;8.15;;;;;;;4.04;100.00;101883.56;5113317;28;20096;-73
2022/11/27 08:26:45;;;;;;;21.52;8.82;;;;;;;4.00;100.00;101875.06;5113366;28;20027;-74
2022/11/27 08:29:11;;;;;;;17.70;8.82;;;;;;;4.08;100.00;101877.03;5094273;28;20032;-73
2022/11/27 08:31:36;;;;;;;22.50;8.27;;;;;;;4.10;100.00;101879.53;5113934;28;20401;-74
2022/11/27 08:37:23;;;;;;;25.08;10.48;;;;;;;4.13;100.00;101884.50;5113390;28;20047;-73
2022/11/27 08:39:48;;;;;;;18.60;9.40;;;;;;;4.17;100.00;101884.06;5113263;28;20024;-74
2022/11/27 08:42:14;;;;;;;32.10;9.90;;;;;;;4.15;100.00;101882.56;5094187;28;20051;-74
2022/11/27 08:44:39;;;;;;;24.67;9.02;;;;;;;4.19;100.00;101878.63;5094545;28;20464;-74
2022/11/27 08:47:04;;;;;;;23.33;9.63;;;;;;;4.26;100.00;101885.81;5111102;28;20100;-75
2022/11/27 08:49:30;;;;;;;19.90;8.82;;;;;;;4.27;100.00;101871.59;5094482;28;20031;-74
2022/11/27 08:51:55;;;;;;;27.80;9.98;;;;;;;4.27;100.00;101868.97;5113638;28;20031;-73
2022/11/27 08:57:42;;;;;;;25.95;9.45;;;;;;;4.31;100.00;101880.91;5112952;28;20054;-75
2022/11/27 09:00:08;;;;;;;25.77;11.55;;;;;;;4.39;100.00;101889.97;5093808;28;20044;-74
2022/11/27 09:02:33;;;;;;;27.02;10.65;;;;;;;4.45;100.00;101889.38;5112861;28;20028;-73
2022/11/27 09:08:20;;;;;;;24.70;9.00;;;;;;;4.41;100.00;101878.25;5112793;28;20084;-74
2022/11/27 09:14:08;;;;;;;30.95;11.60;;;;;;;4.52;100.00;101878.03;5113184;28;20047;-75
2022/11/27 09:19:55;;;;;;;23.65;10.07;;;;;;;4.60;100.00;101879.91;5112719;28;20510;-73
2022/11/27 09:22:20;;;;;;;30.70;12.30;;;;;;;4.61;100.00;101873.63;5112542;28;20031;-74
2022/11/27 09:24:46;;;;;;;28.05;11.13;;;;;;;4.62;100.00;101870.84;5093651;28;20043;-73
2022/11/27 09:27:11;;;;;;;27.15;12.18;;;;;;;4.64;100.00;101870.72;5112207;28;20452;-74
2022/11/27 09:29:36;;;;;;;31.95;13.82;;;;;;;4.75;100.00;101882.91;5093944;28;20032;-74
2022/11/27 09:32:02;;;;;;;25.65;11.23;;;;;;;4.76;100.00;101884.56;5093830;28;20032;-74
2022/11/27 09:34:27;;;;;;;30.63;10.68;;;;;;;4.73;100.00;101879.56;5094199;28;20024;-73
2022/11/27 09:36:52;;;;;;;31.85;14.57;;;;;;;4.83;100.00;101890.94;5112056;28;20111;-73
2022/11/27 09:39:19;;;;;;;31.17;12.48;;;;;;;4.80;100.00;101892.06;5094058;28;20028;-74
2022/11/27 09:41:53;;;;;;;30.60;12.25;;;;;;;4.78;100.00;101882.59;5093847;28;20477;-75
2022/11/27 09:44:51;;;;;;;29.70;11.88;;;;;;;4.84;100.00;101884.63;5111532;28;20491;-74
2022/11/27 09:47:31;;;;;;;30.52;12.18;;;;;;;4.86;100.00;101875.56;5112143;28;20028;-74
2022/11/27 09:50:01;;;;;;;24.33;10.65;;;;;;;4.85;100.00;101875.72;5111186;28;20447;-73
2022/11/27 09:52:40;;;;;;;24.65;11.20;;;;;;;4.91;100.00;101875.09;5093788;28;20118;-74
2022/11/27 09:55:14;;;;;;;29.20;12.73;;;;;;;4.89;100.00;101864.66;5111549;28;20049;-74
2022/11/27 09:57:40;;;;;;;28.45;12.25;;;;;;;4.95;100.00;101861.41;5095794;28;20024;-73
2022/11/27 10:00:19;;;;;;;29.60;11.73;;;;;;;5.00;100.00;101868.06;5097264;28;20046;-76
2022/11/27 10:02:46;;;;;;;29.13;12.10;;;;;;;4.98;100.00;101849.69;5096652;28;20043;-74
2022/11/27 10:05:22;;;;;;;31.42;11.88;;;;;;;5.01;100.00;101851.19;5097200;28;20027;-74
2022/11/27 10:08:26;;;;;;;36.60;12.75;;;;;;;5.03;100.00;101850.03;5095690;28;20048;-74
2022/11/27 10:14:37;;;;;;;31.80;12.48;;;;;;;5.06;100.00;101840.94;5115827;28;20526;-74
2022/11/27 10:17:21;;;;;;;30.50;13.02;;;;;;;5.09;100.00;101832.69;5115298;28;20046;-75
2022/11/27 10:19:53;;;;;;;26.92;11.93;;;;;;;5.10;100.00;101835.19;5114751;28;20039;-74
2022/11/27 10:22:50;;;;;;;36.40;13.77;;;;;;;5.11;100.00;101823.59;5115267;28;20046;-73
2022/11/27 10:25:27;;;;;;;34.75;15.38;;;;;;;5.10;100.00;101807.84;5106753;28;20260;-74
2022/11/27 10:31:37;;;;;;;36.50;14.90;;;;;;;5.24;100.00;101816.09;5115589;28;20124;-74
2022/11/27 10:37:58;;;;;;;38.53;15.35;;;;;;;5.28;100.00;101798.88;5115490;28;20051;-74
2022/11/27 10:40:30;;;;;;;37.53;14.35;;;;;;;5.23;100.00;101793.22;5115135;28;20035;-73
2022/11/27 10:43:03;;;;;;;32.28;13.60;;;;;;;5.23;100.00;101787.09;5114970;28;20450;-75
2022/11/27 10:45:44;;;;;;;28.48;12.35;;;;;;;5.31;100.00;101792.44;5114073;28;20047;-75
2022/11/27 10:48:11;;;;;;;37.72;15.93;;;;;;;5.32;100.00;101787.97;5115044;28;20044;-74
2022/11/27 10:50:36;;;;;;;33.35;14.10;;;;;;;5.32;100.00;101796.75;5114326;28;20048;-74
2022/11/27 10:56:35;;;;;;;29.40;13.45;;;;;;;5.34;100.00;101778.03;5115226;28;20031;-75
2022/11/27 10:59:05;;;;;;;28.92;12.13;;;;;;;5.32;100.00;101780.84;5104603;28;20411;-75
2022/11/27 11:01:52;;;;;;;35.78;14.30;;;;;;;5.32;100.00;101766.75;5114752;28;20026;-75
2022/11/27 11:04:30;;;;;;;31.10;12.65;;;;;;;5.32;100.00;101764.09;5113868;28;20409;-74
2022/11/27 11:06:56;;;;;;;24.27;11.48;;;;;;;5.35;100.00;101761.94;5115456;28;20024;-75
2022/11/27 11:09:26;;;;;;;32.85;12.88;;;;;;;5.36;100.00;101768.09;5113066;28;20085;-74
2022/11/27 11:15:13;;;;;;;30.42;11.57;;;;;;;5.31;100.00;101754.47;5114527;28;20046;-76
2022/11/27 11:17:39;;;;;;;30.10;12.65;;;;;;;5.29;100.00;101739.56;5109593;28;20036;-74
2022/11/27 11:23:33;;;;;;;29.33;11.40;;;;;;;5.41;100.00;101747.22;5114708;28;20126;-75
2022/11/27 11:29:37;;;;;;;27.92;10.55;;;;;;;5.40;100.00;101735.78;5114769;28;20448;-75
2022/11/27 11:32:20;;;;;;;27.05;12.45;;;;;;;5.42;100.00;101725.03;5096898;28;20412;-74
2022/11/27 11:34:52;;;;;;;32.05;13.98;;;;;;;5.40;100.00;101708.44;5113432;28;20058;-74
2022/11/27 11:37:23;;;;;;;27.23;12.65;;;;;;;5.42;100.00;101703.81;5114196;28;20035;-74
2022/11/27 11:40:00;;;;;;;31.63;11.77;;;;;;;5.42;100.00;101694.03;5114533;28;20043;-75
2022/11/27 11:42:31;;;;;;;34.67;13.50;;;;;;;5.45;100.00;101698.19;5113222;28;20588;-74
2022/11/27 11:45:15;;;;;;;31.80;13.60;;;;;;;5.43;100.00;101693.03;5095760;28;20027;-75
2022/11/27 11:51:13;;;;;;;28.55;12.75;;;;;;;5.44;100.00;101686.75;5114183;28;20383;-75
2022/11/27 11:53:39;;;;;;;27.83;12.73;;;;;;;5.48;100.00;101673.97;5113115;28;20122;-74
2022/11/27 11:56:26;;;;;;;33.60;13.73;;;;;;;5.50;100.00;101677.34;5095562;28;20043;-75
2022/11/27 12:02:30;;;;;;;25.73;13.50;;;;;;;5.52;100.00;101667.41;5114170;28;20051;-75
2022/11/27 12:05:07;;;;;;;32.65;14.45;;;;;;;5.60;100.00;101664.75;5113627;28;20039;-74
2022/11/27 12:07:52;;;;;;;24.95;11.82;;;;;;;5.63;100.00;101648.53;5089563;28;20031;-76
2022/11/27 12:13:57;;;;;;;27.75;12.68;;;;;;;5.72;100.00;101628.13;5114142;28;20104;-74
2022/11/27 12:16:32;;;;;;;27.80;13.57;;;;;;;5.74;100.00;101619.00;5113823;28;20023;-74
2022/11/27 12:19:23;;;;;;;32.00;13.45;;;;;;;5.80;100.00;101617.56;5112932;28;20505;-74
2022/11/27 12:25:36;;;;;;;32.40;13.55;;;;;;;5.84;100.00;101616.22;5114088;28;20046;-74
2022/11/27 12:31:40;;;;;;;30.48;14.40;;;;;;;5.82;100.00;101599.66;5113904;28;20043;-74
2022/11/27 12:37:55;;;;;;;34.35;14.57;;;;;;;5.84;100.00;101595.00;5113814;28;20076;-74
2022/11/27 12:47:47;;;;;;;32.58;14.13;;;;;;;5.77;100.00;101573.56;5113398;28;20049;-74
2022/11/27 12:53:41;;;;;;;31.08;12.90;;;;;;;5.71;100.00;101566.28;5113366;28;20088;-74
2022/11/27 12:59:32;;;;;;;28.83;13.43;;;;;;;5.75;100.00;101580.88;5112601;28;20070;-75
2022/11/27 13:05:24;;;;;;;29.73;14.05;;;;;;;5.69;100.00;101562.97;5113204;28;20042;-75
2022/11/27 13:11:15;;;;;;;30.73;13.93;;;;;;;5.72;100.00;101549.38;5113806;28;20518;-74
2022/11/27 13:13:46;;;;;;;32.25;15.48;;;;;;;5.75;100.00;101540.25;5094262;28;20036;-74
2022/11/27 13:19:46;;;;;;;30.85;13.40;;;;;;;5.71;100.00;101545.06;5113010;28;20039;-74
2022/11/27 13:22:15;;;;;;;35.13;14.40;;;;;;;5.66;100.00;101526.16;5094132;28;20016;-74
2022/11/27 13:24:41;;;;;;;33.85;14.02;;;;;;;5.66;100.00;101520.03;5111964;28;20156;-75
2022/11/27 13:30:32;;;;;;;35.40;15.50;;;;;;;5.72;100.00;101541.41;5112417;28;20042;-74
2022/11/27 13:33:00;;;;;;;40.75;15.00;;;;;;;5.75;100.00;101535.75;5111857;28;20027;-75
2022/11/27 13:35:42;;;;;;;35.08;13.70;;;;;;;5.76;100.00;101536.59;5112453;28;20051;-74
2022/11/27 13:41:34;;;;;;;31.30;16.00;;;;;;;5.61;100.00;101525.81;5112677;28;20038;-76
2022/11/27 13:44:00;;;;;;;41.10;17.50;;;;;;;5.69;100.00;101528.47;5111577;28;20047;-75
2022/11/27 13:49:59;;;;;;;30.70;14.38;;;;;;;5.74;100.00;101534.09;5112502;28;20053;-75
2022/11/27 13:55:54;;;;;;;33.20;14.35;;;;;;;5.76;100.00;101521.50;5108077;28;20047;-74
2022/11/27 13:58:37;;;;;;;32.30;13.35;;;;;;;5.74;100.00;101506.75;5112323;28;20020;-75
2022/11/27 14:04:26;;;;;;;35.58;14.30;;;;;;;5.69;100.00;101512.56;5112273;28;20042;-75
2022/11/27 14:07:09;;;;;;;44.67;17.08;;;;;;;5.59;100.00;101483.53;5111800;28;20531;-75
2022/11/27 14:13:00;;;;;;;26.42;11.80;;;;;;;5.71;100.00;101496.47;5111908;28;20407;-75
2022/11/27 14:15:28;;;;;;;34.20;14.57;;;;;;;5.64;100.00;101471.59;5111007;28;20047;-75
2022/11/27 14:18:18;;;;;;;35.13;14.43;;;;;;;5.69;100.00;101480.72;5112023;28;20038;-75
2022/11/27 14:20:52;;;;;;;25.20;11.40;;;;;;;5.66;100.00;101466.97;5112200;28;20475;-75
2022/11/27 14:23:31;;;;;;;34.28;13.25;;;;;;;5.61;100.00;101464.81;5093949;28;20035;-75
2022/11/27 14:29:20;;;;;;;34.22;14.90;;;;;;;5.61;100.00;101462.16;5112095;28;20038;-75
2022/11/27 14:31:55;;;;;;;34.13;14.80;;;;;;;5.59;100.00;101453.53;5093763;28;20472;-76
2022/11/27 14:37:42;;;;;;;35.88;15.32;;;;;;;5.64;100.00;101445.06;5112010;28;20038;-74
2022/11/27 14:40:18;;;;;;;36.30;15.20;;;;;;;5.60;100.00;101439.28;5110953;28;20049;-75
2022/11/27 14:42:44;;;;;;;34.22;14.05;;;;;;;5.54;100.00;101435.47;5093637;28;20024;-75
2022/11/27 14:45:14;;;;;;;33.50;15.00;;;;;;;5.61;100.00;101448.91;5113518;28;20080;-74
2022/11/27 14:51:01;;;;;;;34.17;14.25;;;;;;;5.54;100.00;101445.25;5115360;28;20513;-76
2022/11/27 14:56:49;;;;;;;29.15;13.90;;;;;;;5.51;100.00;101424.38;5115431;28;20453;-75
2022/11/27 14:59:21;;;;;;;33.30;14.27;;;;;;;5.58;100.00;101420.88;5114040;28;20044;-75
2022/11/27 15:05:50;;;;;;;37.17;15.60;;;;;;;5.49;100.00;101416.59;5114845;28;20058;-74